createdAt,value
2019-02-25T00:01:10.918Z,22.23
2019-02-25T00:03:40.690Z,21.57
2019-02-25T00:06:10.439Z,19.90
2019-02-25T00:08:40.235Z,21.83
2019-02-25T00:11:10.041Z,19.43
2019-02-25T00:13:39.812Z,20.27
2019-02-25T00:16:09.878Z,19.87
2019-02-25T00:18:39.626Z,21.77
2019-02-25T00:21:09.411Z,25.23
2019-02-25T00:23:39.187Z,20.07
2019-02-25T00:26:08.976Z,21.47
2019-02-25T00:28:38.767Z,20.57
2019-02-25T00:31:08.349Z,19.80
2019-02-25T00:33:38.199Z,23.67
2019-02-25T00:36:07.958Z,21.90
2019-02-25T00:38:37.738Z,18.87
2019-02-25T00:41:07.389Z,20.77
2019-02-25T00:43:37.121Z,23.63
2019-02-25T00:46:07.181Z,22.07
2019-02-25T00:48:36.969Z,24.67
2019-02-25T00:51:06.736Z,21.97
2019-02-25T00:53:36.516Z,23.17
2019-02-25T00:56:06.347Z,22.23
2019-02-25T00:58:36.158Z,20.93
2019-02-25T01:01:05.996Z,20.23
2019-02-25T01:03:35.992Z,18.70
2019-02-25T01:06:05.723Z,21.27
2019-02-25T01:08:35.534Z,21.93
2019-02-25T01:11:05.365Z,20.20
2019-02-25T01:13:35.166Z,20.47
2019-02-25T01:16:05.324Z,23.53
2019-02-25T01:18:35.150Z,20.23
2019-02-25T01:21:04.973Z,20.77
2019-02-25T01:23:34.802Z,23.50
2019-02-25T01:26:04.498Z,20.27
2019-02-25T01:28:34.291Z,20.17
2019-02-25T01:31:04.070Z,20.20
2019-02-25T01:33:33.835Z,19.43
2019-02-25T01:36:03.634Z,20.10
2019-02-25T01:38:33.452Z,21.50
2019-02-25T01:41:03.279Z,19.80
2019-02-25T01:43:33.078Z,21.83
2019-02-25T01:46:02.918Z,22.63
2019-02-25T01:48:32.727Z,20.93
2019-02-25T01:51:02.638Z,22.10
2019-02-25T01:53:32.686Z,20.97
2019-02-25T01:56:02.515Z,19.30
2019-02-25T01:58:32.255Z,22.63
2019-02-25T02:01:02.013Z,24.00
2019-02-25T02:03:31.771Z,18.83
2019-02-25T02:06:01.594Z,20.57
2019-02-25T02:08:31.386Z,21.43
2019-02-25T02:11:01.243Z,22.70
2019-02-25T02:13:31.451Z,21.60
2019-02-25T02:16:01.253Z,19.50
2019-02-25T02:18:31.047Z,20.30
2019-02-25T02:21:00.792Z,22.13
2019-02-25T02:23:30.470Z,19.97
2019-02-25T02:26:00.375Z,19.77
2019-02-25T02:28:31.146Z,21.60
2019-02-25T02:31:00.941Z,20.50
2019-02-25T02:33:30.691Z,22.77
2019-02-25T02:36:00.494Z,21.53
2019-02-25T02:38:30.275Z,18.90
2019-02-25T02:41:00.066Z,18.27
2019-02-25T02:43:29.945Z,18.87
2019-02-25T02:46:02.788Z,19.47
2019-02-25T02:48:44.556Z,22.73
2019-02-25T02:51:14.757Z,21.50
2019-02-25T02:53:44.470Z,22.67
2019-02-25T02:56:14.240Z,20.70
2019-02-25T02:58:44.035Z,18.57
2019-02-25T03:01:13.831Z,18.83
2019-02-25T03:03:43.552Z,19.90
2019-02-25T03:06:13.341Z,18.40
2019-02-25T03:08:43.134Z,19.27
2019-02-25T03:11:12.915Z,19.10
2019-02-25T03:13:42.700Z,22.67
2019-02-25T03:16:12.442Z,19.47
2019-02-25T03:18:42.121Z,17.80
2019-02-25T03:21:11.819Z,18.70
2019-02-25T03:23:41.635Z,19.50
2019-02-25T03:26:11.338Z,18.70
2019-02-25T03:28:41.395Z,31.60
2019-02-25T03:31:11.322Z,39.93
2019-02-25T03:33:41.976Z,29.80
2019-02-25T03:36:11.603Z,32.67
2019-02-25T03:38:41.489Z,28.53
2019-02-25T03:41:11.283Z,28.17
2019-02-25T03:43:41.786Z,26.17
2019-02-25T03:46:11.594Z,28.10
2019-02-25T03:48:41.395Z,20.97
2019-02-25T03:51:11.245Z,19.07
2019-02-25T03:53:40.943Z,26.77
2019-02-25T03:56:10.612Z,26.83
2019-02-25T03:58:40.499Z,27.63
2019-02-25T04:01:10.897Z,23.57
2019-02-25T04:03:40.687Z,23.63
2019-02-25T04:06:10.381Z,22.67
2019-02-25T04:08:40.177Z,24.13
2019-02-25T04:11:10.523Z,21.07
2019-02-25T04:13:40.356Z,22.00
2019-02-25T04:16:10.135Z,19.77
2019-02-25T04:18:39.916Z,19.03
2019-02-25T04:21:09.686Z,19.77
2019-02-25T04:23:39.474Z,24.40
2019-02-25T04:26:09.272Z,19.97
2019-02-25T04:28:39.089Z,20.80
2019-02-25T04:31:08.914Z,22.53
2019-02-25T04:33:39.699Z,20.10
2019-02-25T04:36:09.505Z,19.27
2019-02-25T04:38:40.128Z,19.57
2019-02-25T04:41:09.918Z,22.17
2019-02-25T04:43:39.803Z,23.43
2019-02-25T04:46:11.128Z,22.67
2019-02-25T04:48:40.941Z,19.60
2019-02-25T04:51:10.702Z,21.03
2019-02-25T04:53:40.515Z,21.37
2019-02-25T04:56:10.663Z,21.30
2019-02-25T04:58:40.446Z,21.43
2019-02-25T05:01:10.109Z,24.73
2019-02-25T05:03:39.905Z,20.47
2019-02-25T05:06:09.725Z,20.20
2019-02-25T05:08:39.518Z,20.97
2019-02-25T05:11:09.247Z,18.70
2019-02-25T05:13:38.985Z,20.03
2019-02-25T05:16:08.777Z,43.90
2019-02-25T05:18:38.523Z,28.00
2019-02-25T05:21:08.343Z,21.47
2019-02-25T05:23:41.277Z,18.60
2019-02-25T05:26:11.059Z,19.47
2019-02-25T05:28:40.812Z,19.70
2019-02-25T05:31:10.600Z,18.07
2019-02-25T05:33:40.498Z,20.00
2019-02-25T05:36:10.326Z,21.27
2019-02-25T05:38:40.170Z,18.93
2019-02-25T05:41:10.086Z,20.43
2019-02-25T05:43:39.878Z,21.20
2019-02-25T05:46:09.637Z,16.27
2019-02-25T05:48:39.323Z,23.33
2019-02-25T05:51:09.110Z,24.37
2019-02-25T05:53:38.886Z,19.20
2019-02-25T05:56:10.206Z,19.73
2019-02-25T05:58:39.946Z,19.97
2019-02-25T06:01:09.742Z,19.47
2019-02-25T06:03:39.518Z,18.80
2019-02-25T06:06:09.347Z,22.83
2019-02-25T06:08:39.153Z,49.27
2019-02-25T06:11:08.938Z,42.80
2019-02-25T06:13:38.878Z,40.77
2019-02-25T06:16:08.566Z,30.87
2019-02-25T06:18:38.370Z,29.20
2019-02-25T06:21:08.154Z,27.17
2019-02-25T06:23:38.006Z,26.77
2019-02-25T06:26:07.741Z,27.93
2019-02-25T06:28:37.517Z,26.20
2019-02-25T06:31:09.736Z,25.80
2019-02-25T06:33:39.695Z,25.07
2019-02-25T06:36:09.511Z,29.23
2019-02-25T06:38:39.287Z,25.60
2019-02-25T06:41:09.065Z,28.33
2019-02-25T06:43:38.662Z,25.47
2019-02-25T06:46:08.479Z,22.57
2019-02-25T06:48:38.317Z,26.50
2019-02-25T06:51:08.164Z,39.40
2019-02-25T06:53:40.957Z,36.93
2019-02-25T06:56:12.395Z,25.73
2019-02-25T06:58:42.497Z,26.57
2019-02-25T07:01:12.780Z,23.57
2019-02-25T07:03:43.648Z,31.90
2019-02-25T07:06:27.515Z,24.60
2019-02-25T07:08:58.905Z,21.93
2019-02-25T07:11:30.284Z,21.43
2019-02-25T07:14:04.698Z,21.43
2019-02-25T07:16:52.540Z,23.83
2019-02-25T07:19:23.865Z,22.40
2019-02-25T07:21:55.186Z,20.03
2019-02-25T07:24:32.214Z,20.70
2019-02-25T07:27:03.545Z,22.77
2019-02-25T07:29:34.925Z,20.87
2019-02-25T07:32:18.567Z,22.47
2019-02-25T07:34:49.948Z,22.83
2019-02-25T07:37:29.045Z,18.23
2019-02-25T07:40:28.856Z,22.47
2019-02-25T07:43:09.361Z,19.00
2019-02-25T07:45:52.972Z,16.80
2019-02-25T07:48:26.991Z,15.00
2019-02-25T07:51:04.443Z,14.70
2019-02-25T07:53:55.059Z,38.17
2019-02-25T07:56:35.478Z,22.37
2019-02-25T07:59:09.678Z,18.40
2019-02-25T08:01:45.005Z,19.60
2019-02-25T08:04:19.227Z,17.63
2019-02-25T08:06:50.699Z,19.67
2019-02-25T08:09:31.231Z,16.07
2019-02-25T08:12:05.285Z,20.63
2019-02-25T08:14:43.826Z,17.33
2019-02-25T08:17:24.067Z,16.43
2019-02-25T08:19:55.478Z,18.37
2019-02-25T08:22:42.068Z,16.53
2019-02-25T08:25:16.152Z,14.63
2019-02-25T08:28:04.615Z,16.80
2019-02-25T08:30:35.976Z,14.70
2019-02-25T08:33:07.494Z,15.07
2019-02-25T08:36:05.940Z,13.13
2019-02-25T08:38:38.516Z,13.07
2019-02-25T08:41:12.798Z,15.03
2019-02-25T08:43:47.045Z,20.17
2019-02-25T08:46:21.213Z,23.60
2019-02-25T08:48:52.694Z,21.60
2019-02-25T08:51:22.433Z,17.83
2019-02-25T08:53:52.202Z,17.50
2019-02-25T08:56:22.004Z,20.23
2019-02-25T08:58:51.820Z,21.67
2019-02-25T09:01:21.701Z,16.43
2019-02-25T09:03:51.428Z,18.87
2019-02-25T09:06:21.259Z,20.57
2019-02-25T09:08:51.037Z,19.00
2019-02-25T09:11:20.829Z,20.03
2019-02-25T09:13:50.653Z,18.30
2019-02-25T09:16:20.552Z,21.10
2019-02-25T09:18:50.347Z,18.83
2019-02-25T09:21:20.022Z,20.60
2019-02-25T09:23:52.339Z,17.43
2019-02-25T09:26:25.185Z,22.87
2019-02-25T09:28:57.423Z,19.07
2019-02-25T09:31:29.625Z,16.90
2019-02-25T09:33:59.400Z,22.27
2019-02-25T09:36:32.247Z,22.30
2019-02-25T09:39:02.623Z,22.37
2019-02-25T09:41:33.297Z,22.90
2019-02-25T09:44:03.144Z,21.03
2019-02-25T09:46:32.933Z,28.47
2019-02-25T09:49:03.078Z,47.57
2019-02-25T09:51:33.778Z,36.37
2019-02-25T09:54:05.590Z,18.20
2019-02-25T09:56:37.332Z,16.63
2019-02-25T09:59:06.971Z,17.30
2019-02-25T10:01:38.849Z,17.80
2019-02-25T10:04:09.626Z,15.40
2019-02-25T10:06:39.335Z,15.80
2019-02-25T10:09:09.995Z,15.27
2019-02-25T10:11:40.075Z,26.40
2019-02-25T10:14:09.892Z,17.20
2019-02-25T10:16:39.730Z,20.20
2019-02-25T10:19:09.900Z,16.90
2019-02-25T10:21:39.589Z,18.77
2019-02-25T10:24:09.399Z,17.67
2019-02-25T10:26:40.791Z,15.00
2019-02-25T10:29:10.967Z,18.67
2019-02-25T10:31:43.810Z,13.17
2019-02-25T10:34:13.844Z,13.97
2019-02-25T10:36:44.525Z,17.03
2019-02-25T10:39:17.755Z,17.30
2019-02-25T10:41:47.523Z,18.50
2019-02-25T10:44:17.931Z,16.13
2019-02-25T10:46:49.090Z,9.30
2019-02-25T10:49:19.497Z,10.00
2019-02-25T10:51:49.311Z,7.47
2019-02-25T10:54:21.661Z,26.53
2019-02-25T10:56:54.212Z,14.33
2019-02-25T10:59:23.827Z,5.70
2019-02-25T11:01:53.638Z,8.70
2019-02-25T11:04:23.907Z,10.13
2019-02-25T11:06:54.962Z,12.93
2019-02-25T11:09:35.438Z,11.90
2019-02-25T11:12:05.386Z,13.07
2019-02-25T11:14:36.509Z,13.47
2019-02-25T11:17:07.058Z,14.83
2019-02-25T11:19:38.434Z,8.13
2019-02-25T11:22:09.967Z,8.07
2019-02-25T11:24:39.779Z,8.60
2019-02-25T11:27:09.534Z,8.17
2019-02-25T11:29:40.500Z,10.77
2019-02-25T11:32:11.556Z,9.97
2019-02-25T11:34:41.379Z,12.97
2019-02-25T11:37:11.179Z,10.33
2019-02-25T11:39:41.031Z,12.90
2019-02-25T11:42:13.531Z,10.83
2019-02-25T11:44:43.147Z,12.20
2019-02-25T11:47:12.960Z,39.33
2019-02-25T11:49:42.739Z,31.23
2019-02-25T11:52:12.661Z,8.73
2019-02-25T11:54:44.146Z,11.63
2019-02-25T11:57:14.056Z,5.47
2019-02-25T11:59:44.165Z,30.67
2019-02-25T12:02:13.994Z,9.10
2019-02-25T12:04:43.894Z,10.57
2019-02-25T12:07:17.027Z,8.50
2019-02-25T12:09:48.678Z,12.10
2019-02-25T12:12:20.560Z,8.37
2019-02-25T12:14:50.378Z,6.60
2019-02-25T12:17:23.234Z,9.97
2019-02-25T12:19:54.566Z,8.07
2019-02-25T12:22:24.741Z,6.83
2019-02-25T12:24:54.965Z,5.53
2019-02-25T12:27:26.480Z,12.17
2019-02-25T12:30:01.428Z,5.33
2019-02-25T12:32:31.253Z,4.50
2019-02-25T12:35:02.204Z,17.10
2019-02-25T12:37:31.981Z,43.53
2019-02-25T12:40:04.240Z,7.40
2019-02-25T12:42:34.013Z,8.30
2019-02-25T12:45:04.507Z,7.10
2019-02-25T12:47:35.095Z,7.40
2019-02-25T12:50:07.755Z,10.87
2019-02-25T12:52:37.725Z,7.90
2019-02-25T12:55:10.374Z,21.23
2019-02-25T12:57:43.190Z,10.80
2019-02-25T13:00:17.298Z,9.83
2019-02-25T13:02:46.946Z,8.70
2019-02-25T13:05:24.179Z,7.97
2019-02-25T13:07:54.146Z,9.67
2019-02-25T13:10:24.224Z,31.27
2019-02-25T13:12:53.961Z,13.00
2019-02-25T13:15:25.641Z,9.63
2019-02-25T13:17:55.348Z,10.77
2019-02-25T13:20:24.944Z,8.07
2019-02-25T13:22:55.698Z,9.77
2019-02-25T13:25:33.235Z,6.23
2019-02-25T13:28:04.259Z,8.57
2019-02-25T13:30:35.231Z,8.20
2019-02-25T13:33:05.052Z,9.60
2019-02-25T13:35:35.494Z,8.63
2019-02-25T13:38:05.297Z,8.10
2019-02-25T13:40:35.300Z,9.17
2019-02-25T13:43:06.674Z,9.30
2019-02-25T13:45:36.466Z,10.07
2019-02-25T13:48:08.092Z,7.03
2019-02-25T13:50:38.588Z,9.43
2019-02-25T13:53:08.418Z,8.83
2019-02-25T13:55:38.108Z,7.17
2019-02-25T13:58:07.983Z,7.47
2019-02-25T14:00:37.803Z,7.60
2019-02-25T14:03:07.836Z,9.97
2019-02-25T14:05:37.705Z,6.50
2019-02-25T14:08:07.428Z,6.80
2019-02-25T14:10:37.767Z,7.77
2019-02-25T14:13:07.704Z,6.50
2019-02-25T14:15:37.507Z,25.07
2019-02-25T14:18:07.315Z,11.97
2019-02-25T14:20:37.206Z,8.97
2019-02-25T14:23:07.062Z,10.20
2019-02-25T14:25:38.385Z,10.40
2019-02-25T14:28:08.833Z,9.47
2019-02-25T14:30:38.635Z,11.17
2019-02-25T14:33:12.778Z,10.17
2019-02-25T14:35:41.656Z,9.80
2019-02-25T14:38:17.346Z,9.40
2019-02-25T14:40:46.652Z,9.43
2019-02-25T14:43:17.687Z,8.70
2019-02-25T14:45:53.107Z,7.30
2019-02-25T14:48:21.057Z,8.53
2019-02-25T14:50:51.502Z,8.93
2019-02-25T14:53:24.530Z,11.10
2019-02-25T14:55:56.009Z,9.57
2019-02-25T14:58:31.348Z,14.10
2019-02-25T15:00:59.862Z,10.33
2019-02-25T15:03:29.623Z,11.20
2019-02-25T15:05:59.523Z,8.27
2019-02-25T15:08:30.647Z,9.80
2019-02-25T15:11:02.889Z,9.17
2019-02-25T15:13:34.993Z,9.20
2019-02-25T15:16:05.236Z,8.10
2019-02-25T15:18:35.058Z,8.80
2019-02-25T15:21:06.812Z,7.97
2019-02-25T15:23:37.406Z,9.10
2019-02-25T15:26:07.212Z,8.27
2019-02-25T15:28:39.534Z,8.73
2019-02-25T15:31:11.348Z,8.80
2019-02-25T15:33:42.477Z,21.97
2019-02-25T15:36:13.546Z,45.87
2019-02-25T15:38:43.983Z,8.33
2019-02-25T15:41:14.966Z,8.50
2019-02-25T15:43:44.841Z,6.07
2019-02-25T15:46:16.649Z,7.10
2019-02-25T15:48:46.341Z,7.10
2019-02-25T15:51:18.324Z,14.33
2019-02-25T15:53:48.995Z,18.70
2019-02-25T15:56:19.318Z,9.47
2019-02-25T15:58:49.314Z,8.80
2019-02-25T16:01:19.090Z,6.57
2019-02-25T16:03:49.350Z,9.60
2019-02-25T16:06:19.447Z,9.67
2019-02-25T16:08:51.885Z,8.73
2019-02-25T16:11:25.681Z,9.03
2019-02-25T16:14:00.086Z,9.83
2019-02-25T16:16:29.738Z,8.97
2019-02-25T16:18:59.564Z,9.10
2019-02-25T16:21:31.752Z,11.07
2019-02-25T16:24:04.151Z,9.83
2019-02-25T16:26:34.284Z,8.20
2019-02-25T16:29:06.622Z,11.77
2019-02-25T16:31:37.658Z,10.90
2019-02-25T16:34:07.610Z,11.90
2019-02-25T16:36:37.463Z,12.10
2019-02-25T16:39:10.005Z,9.37
2019-02-25T16:41:41.802Z,9.20
2019-02-25T16:44:11.635Z,10.10
2019-02-25T16:46:43.550Z,11.63
2019-02-25T16:49:13.219Z,16.57
2019-02-25T16:51:43.020Z,13.13
2019-02-25T16:54:13.574Z,11.73
2019-02-25T16:56:44.710Z,12.33
2019-02-25T16:59:15.778Z,11.60
2019-02-25T17:01:46.251Z,11.27
2019-02-25T17:04:19.804Z,10.17
2019-02-25T17:06:49.149Z,11.30
2019-02-25T17:09:20.413Z,13.93
2019-02-25T17:11:50.640Z,11.57
2019-02-25T17:14:21.666Z,14.83
2019-02-25T17:16:52.023Z,17.17
2019-02-25T17:19:22.532Z,15.03
2019-02-25T17:21:52.503Z,19.67
2019-02-25T17:24:24.070Z,11.43
2019-02-25T17:26:53.891Z,16.30
2019-02-25T17:29:24.669Z,13.13
2019-02-25T17:31:56.922Z,10.17
2019-02-25T17:34:26.679Z,11.63
2019-02-25T17:36:56.885Z,27.10
2019-02-25T17:39:26.671Z,30.67
2019-02-25T17:41:57.674Z,17.87
2019-02-25T17:44:30.021Z,12.10
2019-02-25T17:47:01.930Z,38.03
2019-02-25T17:49:32.320Z,21.10
2019-02-25T17:52:06.187Z,11.03
2019-02-25T17:54:37.653Z,18.13
2019-02-25T17:57:08.055Z,12.50
2019-02-25T17:59:39.250Z,15.70
2019-02-25T18:02:10.493Z,10.70
2019-02-25T18:04:40.885Z,15.90
2019-02-25T18:07:10.786Z,16.27
2019-02-25T18:09:42.241Z,17.30
2019-02-25T18:12:12.090Z,18.10
2019-02-25T18:14:43.183Z,21.90
2019-02-25T18:17:16.667Z,23.93
2019-02-25T18:19:45.694Z,15.77
2019-02-25T18:22:17.527Z,18.93
2019-02-25T18:24:47.505Z,23.97
2019-02-25T18:27:17.477Z,16.57
2019-02-25T18:29:48.156Z,19.17
2019-02-25T18:32:18.889Z,16.30
2019-02-25T18:34:49.939Z,18.90
2019-02-25T18:37:20.391Z,14.13
2019-02-25T18:39:52.234Z,18.60
2019-02-25T18:42:22.839Z,15.50
2019-02-25T18:44:53.542Z,19.63
2019-02-25T18:47:25.595Z,78.43
2019-02-25T18:49:56.664Z,27.67
2019-02-25T18:52:29.230Z,13.87
2019-02-25T18:55:02.002Z,16.33
2019-02-25T18:57:31.379Z,17.37
2019-02-25T19:00:05.769Z,19.30
2019-02-25T19:02:37.709Z,14.80
2019-02-25T19:05:10.648Z,16.83
2019-02-25T19:07:40.646Z,18.47
2019-02-25T19:10:12.449Z,17.03
2019-02-25T19:12:43.859Z,14.80
2019-02-25T19:15:14.225Z,22.47
2019-02-25T19:17:45.757Z,32.67
2019-02-25T19:20:16.820Z,24.90
2019-02-25T19:22:46.663Z,20.43
2019-02-25T19:25:20.031Z,21.20
2019-02-25T19:27:50.142Z,21.33
2019-02-25T19:30:22.244Z,24.57
2019-02-25T19:32:52.714Z,23.77
2019-02-25T19:35:27.788Z,25.37
2019-02-25T19:37:56.886Z,26.60
2019-02-25T19:40:27.943Z,26.97
2019-02-25T19:42:59.532Z,27.10
2019-02-25T19:45:30.520Z,25.80
2019-02-25T19:48:02.264Z,26.60
2019-02-25T19:50:34.165Z,23.00
2019-02-25T19:53:05.239Z,23.20
2019-02-25T19:55:36.159Z,29.30
2019-02-25T19:58:08.465Z,31.27
2019-02-25T20:00:39.304Z,33.57
2019-02-25T20:03:09.291Z,104.47
2019-02-25T20:05:43.364Z,32.10
2019-02-25T20:08:12.947Z,32.93
2019-02-25T20:10:45.420Z,30.27
2019-02-25T20:13:17.274Z,30.90
2019-02-25T20:15:49.098Z,82.23
2019-02-25T20:18:20.692Z,54.87
2019-02-25T20:20:50.809Z,42.30
2019-02-25T20:23:22.271Z,57.50
2019-02-25T20:25:53.511Z,63.30
2019-02-25T20:28:25.064Z,79.73
2019-02-25T20:30:56.339Z,79.73
2019-02-25T20:33:30.411Z,42.97
2019-02-25T20:35:58.931Z,81.00
2019-02-25T20:38:30.086Z,75.70
2019-02-25T20:41:02.534Z,45.83
2019-02-25T20:43:32.633Z,34.60
2019-02-25T20:46:04.039Z,30.80
2019-02-25T20:48:34.506Z,29.83
2019-02-25T20:51:06.733Z,29.10
2019-02-25T20:53:37.695Z,25.80
2019-02-25T20:56:07.574Z,29.60
2019-02-25T20:58:38.317Z,35.30
2019-02-25T21:01:09.850Z,29.97
2019-02-25T21:03:43.900Z,38.70
2019-02-25T21:06:14.514Z,38.83
2019-02-25T21:08:46.569Z,33.77
2019-02-25T21:11:16.072Z,42.60
2019-02-25T21:13:46.978Z,37.40
2019-02-25T21:16:17.071Z,51.30
2019-02-25T21:18:48.688Z,44.87
2019-02-25T21:21:18.472Z,64.27
2019-02-25T21:23:48.314Z,78.67
2019-02-25T21:26:18.104Z,31.87
2019-02-25T21:28:47.893Z,24.20
2019-02-25T21:31:19.557Z,25.07
2019-02-25T21:33:50.066Z,30.60
2019-02-25T21:36:20.802Z,26.23
2019-02-25T21:38:51.616Z,20.53
2019-02-25T21:41:22.805Z,26.03
2019-02-25T21:43:54.064Z,32.53
2019-02-25T21:46:26.047Z,28.10
2019-02-25T21:48:57.550Z,30.20
2019-02-25T21:51:28.092Z,34.87
2019-02-25T21:53:59.942Z,29.33
2019-02-25T21:56:30.197Z,28.17
2019-02-25T21:59:01.499Z,53.17
2019-02-25T22:01:32.309Z,34.53
2019-02-25T22:04:02.883Z,27.87
2019-02-25T22:06:33.222Z,83.17
2019-02-25T22:09:05.057Z,93.77
2019-02-25T22:11:34.866Z,39.10
2019-02-25T22:14:04.601Z,60.67
2019-02-25T22:16:43.662Z,61.57
2019-02-25T22:19:05.885Z,32.70
2019-02-25T22:21:35.668Z,28.40
2019-02-25T22:24:07.425Z,25.27
2019-02-25T22:26:37.668Z,25.10
2019-02-25T22:29:07.524Z,23.97
2019-02-25T22:31:39.420Z,17.23
2019-02-25T22:34:12.635Z,18.37
2019-02-25T22:36:43.783Z,22.40
2019-02-25T22:39:12.747Z,23.90
2019-02-25T22:41:44.442Z,21.63
2019-02-25T22:44:14.054Z,25.97
2019-02-25T22:46:43.872Z,21.47
2019-02-25T22:49:13.702Z,18.73
2019-02-25T22:51:45.127Z,17.77
2019-02-25T22:54:17.038Z,19.20
2019-02-25T22:56:46.426Z,25.00
2019-02-25T22:59:20.045Z,20.87
2019-02-25T23:01:47.713Z,21.43
2019-02-25T23:04:19.565Z,22.07
2019-02-25T23:06:51.259Z,22.30
2019-02-25T23:09:21.313Z,20.77
2019-02-25T23:11:53.137Z,19.23
2019-02-25T23:14:23.439Z,21.80
2019-02-25T23:16:53.283Z,16.97
2019-02-25T23:19:23.179Z,22.70
2019-02-25T23:21:52.973Z,17.07
2019-02-25T23:24:26.011Z,19.67
2019-02-25T23:26:55.249Z,23.33
2019-02-25T23:29:28.422Z,21.37
2019-02-25T23:32:01.776Z,19.87
2019-02-25T23:34:28.820Z,19.90
2019-02-25T23:36:59.476Z,15.73
2019-02-25T23:39:32.034Z,19.73
2019-02-25T23:42:04.691Z,22.83
2019-02-25T23:44:32.135Z,19.07
2019-02-25T23:47:03.945Z,17.20
2019-02-25T23:49:33.972Z,20.50
2019-02-25T23:52:04.948Z,18.33
2019-02-25T23:54:34.873Z,20.60
2019-02-25T23:57:04.655Z,20.93
2019-02-25T23:59:34.472Z,21.83
